Home   Weather   Germany   Bernkastel-Kues   Past weeks
Flag for Germany

Past Weather in Bernkastel-Kues, Rhineland-Palatinate, Germany — Yesterday and Last 2 Weeks

Currently: 37 °F. Sunny. (Weather station: Hahn, Germany). See more current weather

Past Weather in Bernkastel-Kues — Graph

°F

Bernkastel-Kues Temperature Yesterday

Maximum temperature yesterday: 39 °F (at 1:50 pm)
Minimum temperature yesterday: 25 °F (at 5:50 am)
Average temperature yesterday: 32 °F

High & Low Weather Summary for the Past Weeks

 TemperatureHumidityPressure
High63 °F (Feb 21, 3:20 pm)100% (Feb 26, 8:20 am)30.66 "Hg (Feb 26, 8:20 am)
Low25 °F (Mar 6, 5:50 am)27% (Feb 25, 3:20 pm)29.98 "Hg (Feb 20, 5:20 pm)
Average43 °F70%30.33 "Hg
* Reported Feb 20 5:20 pm — Mar 7 5:50 pm, Bernkastel-Kues. Weather by CustomWeather, © 2021

Note: Actual official high and low records may vary slightly from our data, if they occured in-between our weather recording intervals... More about our weather records

Bernkastel-Kues Weather History for the Previous 24 Hours

Scroll right to see more
 ConditionsComfort  
Time TempWeatherWind HumidityBarometerVisibility
5:50 pm
Sun, Mar 7
39 °FSunny.10 mph39%30.09 "Hg10 mi
5:20 pm41 °FSunny.8 mph36%30.09 "Hg10 mi
4:50 pm41 °FPassing clouds.7 mph33%30.09 "HgN/A
4:20 pm41 °FPassing clouds.7 mph39%30.09 "HgN/A
3:50 pm41 °FPassing clouds.9 mph42%30.12 "HgN/A
3:20 pm41 °FPassing clouds.9 mph45%30.12 "HgN/A
2:50 pm43 °FPassing clouds.8 mph39%30.12 "HgN/A
2:20 pm43 °FSunny.2 mph39%30.12 "Hg10 mi
1:20 pm41 °FPassing clouds.6 mph39%30.15 "HgN/A
12:50 pm41 °FSunny.5 mph39%30.15 "Hg10 mi
12:20 pm39 °FPassing clouds.6 mph42%30.18 "HgN/A
11:50 am39 °FPassing clouds.5 mph42%30.18 "HgN/A
11:20 am39 °FSunny.5 mph42%30.18 "Hg10 mi
10:50 am37 °FPassing clouds.5 mph45%30.18 "HgN/A
10:20 am36 °FPassing clouds.6 mph52%30.18 "HgN/A
9:50 am34 °FPassing clouds.6 mph56%30.18 "HgN/A
9:20 am34 °FPassing clouds.5 mph51%30.21 "HgN/A
8:20 am28 °FSunny.6 mph64%30.21 "Hg10 mi
7:50 am28 °FSunny.3 mph59%30.21 "Hg10 mi
7:20 am27 °FPassing clouds.3 mph59%30.21 "HgN/A
6:50 am27 °FClear.2 mph64%30.21 "Hg10 mi
6:20 am25 °FClear.1 mph69%30.24 "Hg10 mi
5:50 am25 °FClear.1 mph69%30.24 "Hg10 mi
5:20 am25 °FClear.1 mph69%30.24 "Hg10 mi
4:50 am25 °FClear.1 mph69%30.24 "Hg10 mi
4:20 am25 °FClear.1 mph74%30.24 "Hg10 mi
3:50 am25 °FClear.1 mph74%30.24 "Hg10 mi
3:20 am27 °FPassing clouds.7 mph69%30.24 "HgN/A
2:50 am27 °FPassing clouds.7 mph69%30.24 "HgN/A
2:20 am28 °FPassing clouds.7 mph64%30.27 "HgN/A
1:50 am28 °FPassing clouds.7 mph64%30.27 "HgN/A
1:20 am28 °FPassing clouds.6 mph64%30.27 "HgN/A
12:50 am28 °FPassing clouds.7 mph64%30.27 "HgN/A
12:20 am28 °FPassing clouds.7 mph64%30.27 "HgN/A
11:50 pm
Sat, Mar 6
28 °FPassing clouds.6 mph59%30.30 "HgN/A
11:20 pm28 °FPassing clouds.6 mph64%30.30 "HgN/A
10:50 pm30 °FPassing clouds.9 mph59%30.33 "HgN/A
10:20 pm30 °FPassing clouds.6 mph55%30.33 "HgN/A
9:50 pm32 °FPassing clouds.6 mph51%30.33 "HgN/A
9:20 pm30 °FPassing clouds.6 mph51%30.33 "HgN/A
8:50 pm30 °FPassing clouds.6 mph51%30.36 "HgN/A
8:20 pm32 °FPassing clouds.5 mph47%30.36 "HgN/A
7:50 pm34 °FPassing clouds.5 mph44%30.36 "HgN/A
7:20 pm34 °FClear.5 mph44%30.36 "Hg10 mi
Weather by CustomWeather, © 2021

See weather overview